Antonello — IKVS — position and weather

sailwx.info

Track history (hours):
 
Tides and Currents Weather Stations Pressure Air Temp Water Temp Dewpoint Dewpoint Depression Visibility Wind Speed Wind Dir Waves Ship Positions

Antonello

Last reported at 2014-Dec-18 18:34 UTC. Time now 2014-Dec-19 03:55 UTC.
Position N 38°14' E 015°30'.

Length 70 m; draft 2.5 m.

Type: Ship. MMSI: 247422000.

Date/timePositionNaut miles runAvg speedWind from/ knotsBaromVisibWave heightAir tempDewpointWater temp
2014-Dec-18 18:34N 38°14' E 015°30'2 0.0
2014-Dec-17 06:33N 38°13' E 015°32'4 0.2
2014-Dec-16 06:33N 38°15' E 015°28'  
2014-Dec-09 16:33N 38°13' E 015°31'0 0.0
2014-Dec-09 15:33N 38°13' E 015°31'0 0.0
2014-Dec-09 14:33N 38°13' E 015°31'0 0.0
2014-Dec-09 13:33N 38°13' E 015°31'0 0.3
2014-Dec-09 12:33N 38°13' E 015°30'1 1.1
2014-Dec-09 11:33N 38°13' E 015°29'0 0.2
2014-Dec-09 10:33N 38°14' E 015°29'0 0.5
2014-Dec-09 09:33N 38°14' E 015°29'1 1.4
2014-Dec-09 08:33N 38°13' E 015°31'0 0.0
2014-Dec-09 07:33N 38°13' E 015°31'3 3.0
2014-Dec-09 06:33N 38°12' E 015°34'0 0.0
2014-Dec-08 19:33N 38°12' E 015°34'  
Track history (hours):
 
Tides and Currents Weather Stations Pressure Air Temp Water Temp Dewpoint Dewpoint Depression Visibility Wind Speed Wind Dir Waves Ship Positions

Antonello

Last reported at 2014-Dec-18 18:34 UTC. Time now 2014-Dec-19 03:55 UTC.
Position N 38°14' E 015°30'.

Length 70 m; draft 2.5 m.

Type: Ship. MMSI: 247422000.

Date/timePositionNaut miles runAvg speedWind from/ knotsBaromVisibWave heightAir tempDewpointWater temp
2014-Dec-18 18:34N 38°14' E 015°30'2 0.0
2014-Dec-17 06:33N 38°13' E 015°32'4 0.2
2014-Dec-16 06:33N 38°15' E 015°28'  
2014-Dec-09 16:33N 38°13' E 015°31'0 0.0
2014-Dec-09 15:33N 38°13' E 015°31'0 0.0
2014-Dec-09 14:33N 38°13' E 015°31'0 0.0
2014-Dec-09 13:33N 38°13' E 015°31'0 0.3
2014-Dec-09 12:33N 38°13' E 015°30'1 1.1
2014-Dec-09 11:33N 38°13' E 015°29'0 0.2
2014-Dec-09 10:33N 38°14' E 015°29'0 0.5
2014-Dec-09 09:33N 38°14' E 015°29'1 1.4
2014-Dec-09 08:33N 38°13' E 015°31'0 0.0
2014-Dec-09 07:33N 38°13' E 015°31'3 3.0
2014-Dec-09 06:33N 38°12' E 015°34'0 0.0
2014-Dec-08 19:33N 38°12' E 015°34'  

Dump ship's entire track history